Latest Coastal Weather Observations for Centre Island

IDD60701

Issued at 1:51 pm CST Tuesday 17 September 2019 (issued every 10 minutes, with the page automatically refreshed every 10 minutes)

About coastal observations | Map of coastal stations | Coastal observations for NT | Marine services | Other Formats
Station Details ID: 014703 Name: CENTRE ISLAND Lat: -15.74 Lon: 136.82 Height: 12.2 m
Data from the previous 72 hours. | See also: Recent months at Centre Island
Date/Time
CST
Wind Sea
Height
m
Swell Vis
km
Cloud Weather Temp
°C
Press
hPa
Rain since
9am
mm
Dir  Spd
kts
Gust
kts
Height
m
Period
s
Dir
17/01:30pm NE 11 14 - - - - - - - 27.9 1016.5 0.0
17/01:00pm NE 11 15 - - - - - - - 28.8 1016.7 0.0
17/12:30pm N 9 11 - - - - - - - 29.4 1017.3 0.0
17/12:00pm NNE 11 14 - - - - - - - 28.4 1017.6 0.0
17/11:30am N 8 13 - - - - - - - 28.7 1017.5 0.0
17/11:00am NNW 9 14 - - - - - - - 28.2 1017.4 0.0
17/10:30am NE 7 9 - - - - - - - 27.0 1017.7 0.0
17/10:00am W 4 5 - - - - - - - 25.7 1017.7 0.0
17/09:30am W 6 7 - - - - - - - 24.2 1017.8 0.0
17/09:00am SSW 6 8 - - - - - - - 23.9 1017.7 0.0
17/08:30am S 6 10 - - - - - - - 23.9 1017.6 0.0
17/08:00am SW 2 4 - - - - - - - 23.0 1017.1 0.0
17/07:30am N 5 7 - - - - - - - 21.9 1016.7 0.0
17/07:00am W 2 4 - - - - - - - 21.7 1016.3 0.0
17/06:30am SW 5 6 - - - - - - - 21.2 1016.1 0.0
17/06:00am SW 7 9 - - - - - - - 21.0 1015.8 0.0
17/05:30am SW 7 10 - - - - - - - 21.1 1015.7 0.0
17/05:00am SSW 7 9 - - - - - - - 21.2 1015.3 0.0
17/04:30am SW 5 6 - - - - - - - 21.0 1015.1 0.0
17/04:00am E 4 5 - - - - - - - 21.0 1014.9 0.0
17/03:30am E 3 5 - - - - - - - 21.0 1014.8 0.0
17/03:00am E 4 5 - - - - - - - 21.2 1014.9 0.0
17/02:30am E 3 5 - - - - - - - 21.3 1015.1 0.0
17/02:00am NE 5 6 - - - - - - - 21.6 1015.4 0.0
17/01:30am NE 6 8 - - - - - - - 22.0 1015.6 0.0
17/01:00am NE 8 11 - - - - - - - 22.2 1015.7 0.0
17/12:30am NNE 11 14 - - - - - - - 22.4 1015.9 0.0
17/12:00am NNE 12 16 - - - - - - - 22.5 1016.0 0.0
 
Date/Time
CST
Wind Sea
Height
m
Swell Vis
km
Cloud Weather Temp
°C
Press
hPa
Rain since
9am
mm
Dir  Spd
kts
Gust
kts
Height
m
Period
s
Dir
16/11:30pm NNE 9 11 - - - - - - - 22.5 1016.2 0.0
16/11:00pm NNE 8 10 - - - - - - - 22.5 1016.3 0.0
16/10:30pm NE 8 10 - - - - - - - 22.5 1016.4 0.0
16/10:00pm NE 8 10 - - - - - - - 22.6 1016.8 0.0
16/09:30pm NE 8 10 - - - - - - - 22.6 1016.6 0.0
16/09:00pm NE 8 9 - - - - - - - 22.7 1016.6 0.0
16/08:30pm NE 7 9 - - - - - - - 22.9 1016.5 0.0
16/08:00pm NE 7 9 - - - - - - - 23.1 1016.3 0.0
16/07:30pm NE 7 10 - - - - - - - 23.2 1016.1 0.0
16/07:00pm NNE 9 11 - - - - - - - 23.4 1015.7 0.0
16/06:30pm NNE 9 11 - - - - - - - 23.6 1015.5 0.0
16/06:00pm NNE 9 12 - - - - - - - 24.1 1015.6 0.0
16/05:30pm NNE 11 14 - - - - - - - 24.7 1015.4 0.0
16/05:00pm NNE 11 14 - - - - - - - 25.3 1015.4 0.0
16/04:30pm NNE 11 14 - - - - - - - 25.9 1015.4 0.0
16/04:00pm NNE 12 15 - - - - - - - 26.1 1015.2 0.0
16/03:30pm NNE 12 14 - - - - - - - 26.7 1015.3 0.0
16/03:00pm NNE 12 15 - - - - - - - 26.3 1015.4 0.0
16/02:30pm NNE 12 16 - - - - - - - 27.0 1015.7 0.0
16/02:00pm NNE 12 15 - - - - - - - 26.7 1015.9 0.0
16/01:30pm NNE 11 15 - - - - - - - 27.3 1016.4 0.0
16/01:00pm NNE 12 16 - - - - - - - 27.4 1016.8 0.0
16/12:30pm NNE 13 17 - - - - - - - 27.5 1017.3 0.0
16/12:00pm NNE 13 16 - - - - - - - 27.7 1017.7 0.0
16/11:30am NNE 12 15 - - - - - - - 27.6 1017.9 0.0
16/11:00am NE 12 15 - - - - - - - 27.7 1018.3 0.0
16/10:30am NE 7 9 - - - - - - - 26.1 1018.7 0.0
16/10:00am ENE 5 6 - - - - - - - 24.6 1018.8 0.0
16/09:30am ESE 5 6 - - - - - - - 24.1 1018.7 0.0
16/09:00am SE 5 6 - - - - - - - 23.6 1018.5 0.0
16/08:30am NE 3 5 - - - - - - - 23.4 1018.2 0.0
16/08:00am SE 3 4 - - - - - - - 22.5 1017.8 0.0
16/07:30am SSE 5 7 - - - - - - - 21.3 1017.5 0.0
16/07:00am SSE 6 8 - - - - - - - 20.6 1017.4 0.0
16/06:30am W 4 6 - - - - - - - 19.7 1017.0 0.0
16/06:00am SSW 7 9 - - - - - - - 20.3 1016.3 0.0
16/05:30am SSW 7 8 - - - - - - - 20.9 1016.1 0.0
16/05:00am SW 4 6 - - - - - - - 20.8 1015.9 0.0
16/04:30am W 3 4 - - - - - - - 20.0 1015.6 0.0
16/04:00am W 4 5 - - - - - - - 19.8 1015.4 0.0
16/03:30am WNW 5 6 - - - - - - - 19.5 1015.4 0.0
16/03:00am W 3 4 - - - - - - - 20.3 1015.3 0.0
16/02:30am CALM 0 0 - - - - - - - 20.1 1015.6 0.0
16/02:00am CALM 0 0 - - - - - - - 20.5 1015.8 0.0
16/01:30am CALM 0 0 - - - - - - - 20.3 1016.0 0.0
16/01:00am NE 1 3 - - - - - - - 20.8 1016.4 0.0
16/12:30am NE 5 6 - - - - - - - 21.4 1016.7 0.0
16/12:00am NE 6 7 - - - - - - - 21.5 1016.8 0.0
 
Date/Time
CST
Wind Sea
Height
m
Swell Vis
km
Cloud Weather Temp
°C
Press
hPa
Rain since
9am
mm
Dir  Spd
kts
Gust
kts
Height
m
Period
s
Dir
15/11:30pm ENE 7 8 - - - - - - - 21.7 1017.0 0.0
15/11:00pm ENE 7 9 - - - - - - - 21.8 1017.2 0.0
15/10:30pm ENE 9 10 - - - - - - - 22.0 1017.2 0.0
15/10:00pm ENE 9 10 - - - - - - - 22.1 1017.5 0.0
15/09:30pm ENE 10 11 - - - - - - - 22.3 1017.5 0.0
15/09:00pm ENE 10 11 - - - - - - - 22.4 1017.3 0.0
15/08:30pm E 9 11 - - - - - - - 22.6 1017.1 0.0
15/08:00pm E 10 11 - - - - - - - 22.9 1016.8 0.0
15/07:30pm E 11 13 - - - - - - - 23.4 1016.6 0.0
15/07:00pm E 10 11 - - - - - - - 23.8 1016.3 0.0
15/06:30pm E 9 11 - - - - - - - 24.2 1016.1 0.0
15/06:00pm E 8 10 - - - - - - - 24.9 1015.8 0.0
15/05:30pm E 9 11 - - - - - - - 25.9 1015.7 0.0
15/05:00pm NE 7 9 - - - - - - - 25.6 1015.6 0.0
15/04:30pm NNE 9 12 - - - - - - - 26.2 1015.5 0.0
15/04:00pm NE 9 13 - - - - - - - 26.7 1015.5 0.0
15/03:30pm ENE 9 11 - - - - - - - 28.0 1015.6 0.0
15/03:00pm NE 11 14 - - - - - - - 27.2 1015.8 0.0
15/02:30pm NE 11 15 - - - - - - - 27.9 1015.9 0.0
15/02:00pm NE 10 13 - - - - - - - 28.0 1016.2 0.0
15/01:30pm NE 11 15 - - - - - - - 27.4 1016.6 0.0
15/01:00pm NE 13 16 - - - - - - - 28.3 1017.0 0.0
15/12:30pm NNE 11 15 - - - - - - - 28.3 1017.4 0.0
15/12:00pm NNE 11 15 - - - - - - - 27.8 1017.7 0.0
15/11:30am NE 10 14 - - - - - - - 28.3 1018.2 0.0
15/11:00am NE 13 18 - - - - - - - 27.3 1018.5 0.0
15/10:30am ENE 15 19 - - - - - - - 27.7 1018.8 0.0
15/10:21am ENE 15 19 - - - - - - - 27.5 1018.9 0.0
15/10:00am SE 8 9 - - - - - - - 25.5 1019.1 0.0
15/09:30am ESE 7 9 - - - - - - - 24.8 1019.0 0.0
15/09:00am ESE 6 8 - - - - - - - 24.1 1018.9 0.0
15/08:30am ESE 7 8 - - - - - - - 23.5 1018.8 0.0
15/08:00am SE 7 8 - - - - - - - 23.0 1018.7 0.0
15/07:30am S 8 10 - - - - - - - 22.1 1017.7 0.0
15/07:00am SSW 9 11 - - - - - - - 21.2 1017.4 0.0
15/06:30am SSW 10 11 - - - - - - - 20.6 1016.9 0.0
15/06:00am SSW 10 12 - - - - - - - 20.5 1016.5 0.0
15/05:30am SSW 10 12 - - - - - - - 20.6 1016.5 0.0
15/05:00am SSW 8 11 - - - - - - - 20.5 1016.1 0.0
15/04:30am SSW 9 10 - - - - - - - 20.3 1016.0 0.0
15/04:00am SW 8 10 - - - - - - - 20.4 1015.7 0.0
15/03:30am SW 8 9 - - - - - - - 20.4 1015.6 0.0
15/03:00am SW 7 9 - - - - - - - 20.5 1015.9 0.0
15/02:30am SW 6 8 - - - - - - - 20.5 1016.0 0.0
15/02:00am SW 6 8 - - - - - - - 21.5 1016.1 0.0
15/01:30am WSW 4 5 - - - - - - - 20.2 1016.3 0.0
15/01:00am NNW 3 4 - - - - - - - 20.5 1016.3 0.0
15/12:30am N 5 6 - - - - - - - 21.1 1016.5 0.0
15/12:00am N 7 9 - - - - - - - 22.1 1016.7 0.0
 
Date/Time
CST
Wind Sea
Height
m
Swell Vis
km
Cloud Weather Temp
°C
Press
hPa
Rain since
9am
mm
Dir  Spd
kts
Gust
kts
Height
m
Period
s
Dir
14/11:30pm NNE 7 9 - - - - - - - 22.2 1016.9 0.0
14/11:00pm NNE 8 10 - - - - - - - 22.5 1017.1 0.0
14/10:30pm NNE 9 11 - - - - - - - 22.6 1017.2 0.0
14/10:00pm NE 10 12 - - - - - - - 22.7 1017.3 0.0
14/09:30pm NE 10 13 - - - - - - - 22.7 1017.4 0.0
14/09:00pm NE 9 11 - - - - - - - 22.9 1017.6 0.0
14/08:30pm ENE 8 11 - - - - - - - 23.0 1017.7 0.0
14/08:00pm ENE 8 10 - - - - - - - 23.3 1017.5 0.0
14/07:30pm ENE 8 10 - - - - - - - 23.6 1017.1 0.0
14/07:00pm ENE 8 10 - - - - - - - 24.0 1016.9 0.0
14/06:30pm E 9 11 - - - - - - - 24.5 1016.7 0.0
14/06:00pm E 11 14 - - - - - - - 25.3 1016.6 0.0
14/05:30pm E 11 13 - - - - - - - 26.2 1016.3 0.0
14/05:00pm E 10 12 - - - - - - - 26.5 1016.2 0.0
14/04:30pm E 13 16 - - - - - - - 27.0 1016.2 0.0
14/04:00pm E 12 15 - - - - - - - 28.0 1016.2 0.0
14/03:30pm E 11 14 - - - - - - - 28.6 1016.2 0.0
14/03:00pm ENE 7 11 - - - - - - - 28.0 1016.4 0.0
14/02:30pm NE 9 12 - - - - - - - 27.7 1016.7 0.0
14/02:00pm NE 9 13 - - - - - - - 27.9 1017.0 0.0

Other formats

Comma delimited format used in spreadsheet applications
http://www.bom.gov.au/fwo/IDD60701/IDD60701.94248.axf

JavaScript Object Notation format (JSON) in row-major order
http://www.bom.gov.au/fwo/IDD60701/IDD60701.94248.json

Data quality

Most of these data are generated automatically and are frequently updated. Quality checks on data are not normally performed. It is possible for incorrect values to appear. Refer to information at About Latest Weather Observations and please check the disclaimer before using these data.